Rhonestern — CQLF — position and weather

sailwx.info

Track history (hours):
 
Tides and Currents Weather Stations Pressure Air Temp Water Temp Dewpoint Dewpoint Depression Visibility Wind Speed Wind Dir Waves Ship Positions

Rhonestern

Last reported at 2017-Nov-18 03:09 UTC. Time now 2017-Nov-22 03:54 UTC.
Position N 52°40' W 005°51'.

Length 162 m; draft 6.8 m.

Type: Tanker. MMSI: 254899958.

Date/timePositionNaut miles runAvg speedWind from/ knotsBaromVisibWave heightAir tempDewpointWater temp
2017-Nov-18 03:09N 52°40' W 005°51'110.2
2017-Nov-18 03:00N 52°39' W 005°51'510.0
2017-Nov-18 02:30N 52°34' W 005°50'5 9.7
2017-Nov-18 02:00N 52°29' W 005°50'5 9.6
2017-Nov-18 01:30N 52°24' W 005°49'5 9.6
2017-Nov-18 01:00N 52°19' W 005°49'5 9.9
2017-Nov-18 00:30N 52°14' W 005°48'510.3
2017-Nov-18 00:00N 52°09' W 005°47'610.6
2017-Nov-17 23:29N 52°04' W 005°46'3611.7
2017-Nov-17 20:25N 51°28' W 005°57'5212.5
2017-Nov-17 16:15N 50°38' W 006°20'83 7.8
2017-Nov-17 05:34N 49°51' W 004°33'111.7
2017-Nov-17 05:29N 49°51' W 004°32'611.5
2017-Nov-17 05:00N 49°52' W 004°23'711.3
2017-Nov-17 04:25N 49°52' W 004°13'611.4
2017-Nov-17 03:56N 49°53' W 004°04'511.3
2017-Nov-17 03:30N 49°54' W 003°57'611.7
2017-Nov-17 03:00N 49°55' W 003°48'712.1
2017-Nov-17 02:27N 49°55' W 003°38'612.6
2017-Nov-17 02:00N 49°56' W 003°29'713.2
2017-Nov-17 01:30N 49°57' W 003°19'713.7
2017-Nov-17 01:00N 49°58' W 003°08'714.3
2017-Nov-17 00:30N 49°59' W 002°57'714.7
2017-Nov-17 00:00N 50°01' W 002°46'714.7
2017-Nov-16 23:30N 50°03' W 002°35'1814.0
2017-Nov-16 22:15N 50°07' W 002°09'312.9
2017-Nov-16 22:00N 50°08' W 002°04'612.2
2017-Nov-16 21:30N 50°10' W 001°55'611.3
2017-Nov-16 21:00N 50°11' W 001°47'510.5
2017-Nov-16 20:30N 50°13' W 001°39'5 9.9
2017-Nov-16 20:00N 50°14' W 001°31'5 9.2
2017-Nov-16 19:30N 50°15' W 001°24'5 9.0
2017-Nov-16 19:00N 50°17' W 001°17'5 8.9
2017-Nov-16 18:24N 50°18' W 001°09'4 8.8
2017-Nov-16 17:58N 50°19' W 001°03'7 9.7
2017-Nov-16 17:15N 50°21' W 000°53'2711.9
2017-Nov-16 15:00N 50°28' W 000°13'612.9
2017-Nov-16 14:31N 50°30' W 000°03'713.1
2017-Nov-16 14:00N 50°31' E 000°07'613.0
2017-Nov-16 13:31N 50°33' E 000°17'612.8
2017-Nov-16 13:01N 50°35' E 000°27'612.3
2017-Nov-16 12:31N 50°37' E 000°36'611.8
2017-Nov-16 12:00N 50°40' E 000°43'611.5
2017-Nov-16 11:31N 50°44' E 000°50'510.8
2017-Nov-16 11:01N 50°46' E 000°58'510.3
2017-Nov-16 10:31N 50°49' E 001°05'510.2
2017-Nov-16 10:01N 50°53' E 001°10'510.1
2017-Nov-16 09:31N 50°57' E 001°15'510.1
2017-Nov-16 08:58N 51°01' E 001°21'510.9
2017-Nov-16 08:31N 51°04' E 001°27'612.4
2017-Nov-16 08:01N 51°08' E 001°35'713.5
2017-Nov-16 07:30N 51°12' E 001°43'714.1
2017-Nov-16 07:01N 51°18' E 001°49'714.2
2017-Nov-16 06:31N 51°24' E 001°54'713.6
2017-Nov-16 06:00N 51°30' E 002°01'713.4
2017-Nov-16 05:30N 51°35' E 002°08'713.1
2017-Nov-16 05:00N 51°39' E 002°16'612.7
2017-Nov-16 04:30N 51°44' E 002°23'612.1
2017-Nov-16 04:00N 51°49' E 002°29'4310.3
2017-Nov-15 23:49N 52°04' E 003°35'310.5
2017-Nov-15 23:31N 52°03' E 003°40'510.9
2017-Nov-15 23:00N 52°03' E 003°49'5 9.5
2017-Nov-15 22:31N 52°01' E 003°56'612.1
2017-Nov-15 22:00N 51°59' E 004°05'4 7.8
2017-Nov-15 21:30N 51°57' E 004°11'1 2.2
2017-Nov-15 20:59N 51°56' E 004°12'0 0.0
2017-Nov-15 20:28N 51°56' E 004°12'0 0.0
2017-Nov-15 19:52N 51°56' E 004°12'0 0.0
2017-Nov-15 19:28N 51°56' E 004°12'0 0.0
2017-Nov-15 18:55N 51°56' E 004°12'0 0.0
2017-Nov-15 18:25N 51°56' E 004°12'0 0.0
2017-Nov-15 18:00N 51°56' E 004°12'0 0.0
2017-Nov-15 17:30N 51°56' E 004°12'0 0.0
2017-Nov-15 17:00N 51°56' E 004°12'0 0.0
2017-Nov-15 16:30N 51°56' E 004°12'0 0.0
2017-Nov-15 16:00N 51°56' E 004°12'0 0.0
2017-Nov-15 15:29N 51°56' E 004°12'0 0.0
2017-Nov-15 14:59N 51°56' E 004°12'0 0.0
2017-Nov-15 14:23N 51°56' E 004°12'0 0.0
2017-Nov-15 13:59N 51°56' E 004°12'0 0.0
2017-Nov-15 13:28N 51°56' E 004°12'0 0.0
2017-Nov-15 12:58N 51°56' E 004°12'0 0.0
2017-Nov-15 12:28N 51°56' E 004°12'0 0.0
2017-Nov-15 12:00N 51°56' E 004°12'0 0.0
2017-Nov-15 11:28N 51°56' E 004°12'0 0.0
2017-Nov-15 10:54N 51°56' E 004°12'0 0.0
2017-Nov-15 10:30N 51°56' E 004°12'0 0.0
2017-Nov-15 09:57N 51°56' E 004°12'0 0.0
2017-Nov-15 09:12N 51°56' E 004°12'0 0.0
2017-Nov-15 08:59N 51°56' E 004°12'0 0.0
2017-Nov-15 08:29N 51°56' E 004°12'0 0.0
2017-Nov-15 07:53N 51°56' E 004°12'0 0.0
2017-Nov-15 07:26N 51°56' E 004°12'0 0.0
2017-Nov-15 06:59N 51°56' E 004°12'0 0.0
2017-Nov-15 06:28N 51°56' E 004°12'0 0.0
2017-Nov-15 05:58N 51°56' E 004°12'0 0.0
2017-Nov-15 05:25N 51°56' E 004°12'0 0.0
2017-Nov-15 04:58N 51°56' E 004°12'0 0.0
2017-Nov-15 04:31N 51°56' E 004°12'0 0.0
2017-Nov-15 04:00N 51°56' E 004°12'0 0.0
2017-Nov-15 03:27N 51°56' E 004°12'0 0.0
2017-Nov-15 03:00N 51°56' E 004°12'0 0.0
2017-Nov-15 02:30N 51°56' E 004°12'0 0.0
2017-Nov-15 01:59N 51°56' E 004°12'0 0.0
2017-Nov-15 01:26N 51°56' E 004°12'0 0.0
2017-Nov-15 00:59N 51°56' E 004°12'0 0.0
2017-Nov-15 00:29N 51°56' E 004°12'0 0.0
2017-Nov-14 23:59N 51°56' E 004°12'0 0.0
2017-Nov-14 23:28N 51°56' E 004°12'0 0.0
2017-Nov-14 22:58N 51°56' E 004°12'0 0.0
2017-Nov-14 22:28N 51°56' E 004°12'0 0.0
2017-Nov-14 21:58N 51°56' E 004°12'0 0.0
2017-Nov-14 21:30N 51°56' E 004°12'0 0.0
2017-Nov-14 21:00N 51°56' E 004°12'0 0.0
2017-Nov-14 20:30N 51°56' E 004°12'0 0.0
2017-Nov-14 20:00N 51°56' E 004°12'0 0.0
2017-Nov-14 19:30N 51°56' E 004°12'0 0.0
2017-Nov-14 18:59N 51°56' E 004°12'0 0.0
2017-Nov-14 18:29N 51°56' E 004°12'0 0.2
2017-Nov-14 18:00N 51°56' E 004°12'1 1.3
2017-Nov-14 17:31N 51°56' E 004°11'3 6.2
2017-Nov-14 17:00N 51°58' E 004°07'510.7
2017-Nov-14 16:30N 51°60' E 003°59'612.7
2017-Nov-14 16:01N 51°60' E 003°49'4 7.6
2017-Nov-14 15:31N 51°59' E 003°43'510.2
2017-Nov-14 15:00N 51°57' E 003°34'712.8
2017-Nov-14 14:27N 51°55' E 003°24'612.5
2017-Nov-14 14:00N 51°49' E 003°24'0 0.5
2017-Nov-14 13:26N 51°49' E 003°24'0 0.0
2017-Nov-14 12:57N 51°49' E 003°24'0 0.0
2017-Nov-14 12:29N 51°49' E 003°24'0 0.0
2017-Nov-14 11:58N 51°49' E 003°24'0 0.0
2017-Nov-14 11:21N 51°49' E 003°24'0 0.0
2017-Nov-14 10:52N 51°49' E 003°24'0 0.0
2017-Nov-14 10:26N 51°49' E 003°24'0 0.0
2017-Nov-14 10:00N 51°49' E 003°24'0 0.1
2017-Nov-14 09:28N 51°49' E 003°24'0 0.1
2017-Nov-14 08:53N 51°49' E 003°24'0 0.0
2017-Nov-14 08:30N 51°49' E 003°24'0 0.0
2017-Nov-14 07:56N 51°49' E 003°24'0 0.1
2017-Nov-14 07:29N 51°49' E 003°24'0 0.0
2017-Nov-14 06:58N 51°49' E 003°24'0 0.0
2017-Nov-14 06:29N 51°49' E 003°24'0 0.1
2017-Nov-14 05:59N 51°49' E 003°24'0 0.0
2017-Nov-14 05:30N 51°49' E 003°24'0 0.0
2017-Nov-14 05:00N 51°49' E 003°24'0 0.0
2017-Nov-14 04:29N 51°49' E 003°24'0 0.0
2017-Nov-14 04:00N 51°49' E 003°24'0 0.0
2017-Nov-14 03:29N 51°49' E 003°24'0 0.0
2017-Nov-14 02:59N 51°49' E 003°24'0 0.0
2017-Nov-14 02:30N 51°49' E 003°24'0 0.0
2017-Nov-14 01:59N 51°49' E 003°24'0 0.0
2017-Nov-14 01:30N 51°49' E 003°24'0 0.0
2017-Nov-14 00:58N 51°49' E 003°24'0 0.1
2017-Nov-14 00:25N 51°49' E 003°24'0 0.0
2017-Nov-13 23:56N 51°49' E 003°24'0 0.0
2017-Nov-13 23:07N 51°49' E 003°24'0 0.0
2017-Nov-13 22:52N 51°49' E 003°24'0 0.0
2017-Nov-13 22:30N 51°49' E 003°24'2 0.1
2017-Nov-13 02:00N 51°51' E 003°25'0 0.6
2017-Nov-13 01:28N 51°50' E 003°25'0 0.8
2017-Nov-13 01:00N 51°51' E 003°25'0 0.4
2017-Nov-13 00:30N 51°51' E 003°25'1 2.5
2017-Nov-12 23:59N 51°50' E 003°26'1 2.1
2017-Nov-12 23:29N 51°49' E 003°24'2 4.4
2017-Nov-12 23:00N 51°51' E 003°23'1 1.3
2017-Nov-12 22:30N 51°51' E 003°22'0 0.2
2017-Nov-12 21:53N 51°51' E 003°22'0 0.5
2017-Nov-12 21:28N 51°51' E 003°22'1 1.3
2017-Nov-12 21:00N 51°50' E 003°22'0 0.5
2017-Nov-12 20:29N 51°50' E 003°23'1 2.1
2017-Nov-12 19:59N 51°49' E 003°24'1 1.0
2017-Nov-12 19:29N 51°48' E 003°23'0 0.3
2017-Nov-12 18:57N 51°49' E 003°23'0 0.1
2017-Nov-12 18:27N 51°49' E 003°23'0 0.0
2017-Nov-12 17:35N 51°49' E 003°23'0 0.2
2017-Nov-12 17:30N 51°49' E 003°23'0 0.1
2017-Nov-12 16:12N 51°49' E 003°23'0 0.1
2017-Nov-12 15:54N 51°49' E 003°23'0 0.0
2017-Nov-12 15:30N 51°49' E 003°23'0 0.1
2017-Nov-12 13:32N 51°49' E 003°23'0 0.1
2017-Nov-12 13:14N 51°49' E 003°23'0 0.0
2017-Nov-12 12:50N 51°49' E 003°23'0 0.0
2017-Nov-12 10:40N 51°49' E 003°23'0 0.1
2017-Nov-12 10:19N 51°49' E 003°23'0 0.0
2017-Nov-12 09:51N 51°49' E 003°23'0 0.0
2017-Nov-12 09:21N 51°49' E 003°23'0 0.0
2017-Nov-12 08:51N 51°49' E 003°23'0 0.0
2017-Nov-12 08:21N 51°49' E 003°23'0 0.0
2017-Nov-12 07:51N 51°49' E 003°23'0 0.0
2017-Nov-12 07:20N 51°49' E 003°23'0 0.1
2017-Nov-12 06:53N 51°49' E 003°23'0 0.0
2017-Nov-12 05:59N 51°49' E 003°23'0 0.0
2017-Nov-12 05:23N 51°49' E 003°23'0 0.0
2017-Nov-12 04:55N 51°49' E 003°23'0 0.0
2017-Nov-12 04:28N 51°49' E 003°23'0 0.0
2017-Nov-12 03:58N 51°49' E 003°23'0 0.0
2017-Nov-12 03:25N 51°49' E 003°23'0 0.0
2017-Nov-12 03:00N 51°49' E 003°23'0 0.0
2017-Nov-12 02:30N 51°49' E 003°23'0 0.0
2017-Nov-12 02:00N 51°49' E 003°23'0 0.0
2017-Nov-12 01:21N 51°49' E 003°23'0 0.0
2017-Nov-12 01:00N 51°49' E 003°23'0 0.0
2017-Nov-12 00:08N 51°49' E 003°23'0 0.0
2017-Nov-11 23:56N 51°49' E 003°23'0 0.0
2017-Nov-11 23:29N 51°49' E 003°23'0 0.1
2017-Nov-11 21:52N 51°49' E 003°23'3 7.9
2017-Nov-11 21:28N 51°47' E 003°19'511.1
2017-Nov-11 20:59N 51°42' E 003°18'612.8
2017-Nov-11 20:30N 51°36' E 003°23'613.0
2017-Nov-11 20:00N 51°30' E 003°27'612.2
2017-Nov-11 19:30N 51°26' E 003°34'4 7.1
2017-Nov-11 19:00N 51°26' E 003°40'510.2
2017-Nov-11 18:30N 51°22' E 003°45'2 3.5
2017-Nov-11 17:58N 51°20' E 003°46'0 0.0
2017-Nov-11 17:28N 51°20' E 003°46'0 0.0
2017-Nov-11 16:57N 51°20' E 003°46'0 0.0
2017-Nov-11 16:21N 51°20' E 003°46'0 0.0
2017-Nov-11 15:57N 51°20' E 003°46'0 0.0
2017-Nov-11 15:30N 51°20' E 003°46'0 0.0
2017-Nov-11 15:00N 51°20' E 003°46'0 0.0
2017-Nov-11 14:29N 51°20' E 003°46'0 0.0
2017-Nov-11 13:56N 51°20' E 003°46'0 0.0
2017-Nov-11 13:29N 51°20' E 003°46'0 0.0
2017-Nov-11 12:56N 51°20' E 003°46'0 0.0
2017-Nov-11 12:26N 51°20' E 003°46'0 0.0
2017-Nov-11 11:58N 51°20' E 003°46'0 0.0
2017-Nov-11 11:25N 51°20' E 003°46'0 0.0
2017-Nov-11 10:55N 51°20' E 003°46'0 0.0
2017-Nov-11 10:28N 51°20' E 003°46'0 0.0
2017-Nov-11 10:00N 51°20' E 003°46'0 0.0
2017-Nov-11 09:30N 51°20' E 003°46'0 0.0
2017-Nov-11 08:54N 51°20' E 003°46'0 0.0
2017-Nov-11 08:30N 51°20' E 003°46'0 0.0
2017-Nov-11 08:00N 51°20' E 003°46'0 0.0
2017-Nov-11 07:29N 51°20' E 003°46'0 0.0
2017-Nov-11 06:59N 51°20' E 003°46'0 0.0
2017-Nov-11 06:26N 51°20' E 003°46'0 0.0
2017-Nov-11 05:59N 51°20' E 003°46'0 0.0
2017-Nov-11 05:29N 51°20' E 003°46'0 0.0
2017-Nov-11 04:58N 51°20' E 003°46'0 0.0
2017-Nov-11 04:28N 51°20' E 003°46'0 0.0
2017-Nov-11 03:58N 51°20' E 003°46'0 0.0
2017-Nov-11 03:28N 51°20' E 003°46'0 0.0
2017-Nov-11 03:00N 51°20' E 003°46'0 0.0
2017-Nov-11 02:24N 51°20' E 003°46'0 0.0
2017-Nov-11 01:57N 51°20' E 003°46'0 0.0
2017-Nov-11 01:30N 51°20' E 003°46'0 0.0
2017-Nov-11 00:54N 51°20' E 003°46'0 0.0
2017-Nov-11 00:23N 51°20' E 003°46'0 0.0
2017-Nov-10 23:56N 51°20' E 003°46'0 0.0
2017-Nov-10 23:29N 51°20' E 003°46'0 0.0
2017-Nov-10 22:56N 51°20' E 003°46'0 0.0
2017-Nov-10 22:25N 51°20' E 003°46'0 0.0
2017-Nov-10 21:55N 51°20' E 003°46'0 0.0
2017-Nov-10 21:25N 51°20' E 003°46'0 0.0
2017-Nov-10 20:55N 51°20' E 003°46'0 0.0
2017-Nov-10 20:25N 51°20' E 003°46'0 0.0
2017-Nov-10 20:00N 51°20' E 003°46'0 0.0
2017-Nov-10 19:30N 51°20' E 003°46'0 0.0
2017-Nov-10 18:18N 51°20' E 003°46'0 1.0
2017-Nov-10 18:01N 51°21' E 003°46'4 7.0
2017-Nov-10 17:30N 51°24' E 003°43'510.5
2017-Nov-10 17:01N 51°26' E 003°35'713.0
2017-Nov-10 16:30N 51°30' E 003°27'612.4
2017-Nov-10 16:00N 51°36' E 003°23'611.4
2017-Nov-10 15:30N 51°40' E 003°17'4 7.5
2017-Nov-10 15:00N 51°44' E 003°16'3 5.8
2017-Nov-10 14:29N 51°46' E 003°20'0 0.1
2017-Nov-10 13:59N 51°46' E 003°20'0 0.0
2017-Nov-10 13:28N 51°46' E 003°20'0 0.0
2017-Nov-10 12:58N 51°46' E 003°20'0 0.1
2017-Nov-10 12:28N 51°46' E 003°20'0 0.1
2017-Nov-10 11:58N 51°46' E 003°20'0 0.0
2017-Nov-10 11:30N 51°46' E 003°20'0 0.1
2017-Nov-10 11:00N 51°46' E 003°20'0 0.0
2017-Nov-10 10:24N 51°46' E 003°20'0 0.0
2017-Nov-10 10:00N 51°46' E 003°20'1 1.6
2017-Nov-10 09:28N 51°46' E 003°18'613.1
2017-Nov-10 08:59N 51°45' E 003°08'216 9.1
2017-Nov-09 09:23N 54°12' E 007°30'511.4
2017-Nov-09 09:00N 54°11' E 007°37'612.3
2017-Nov-09 08:30N 54°08' E 007°46'612.5
2017-Nov-09 08:00N 54°04' E 007°55'612.8
2017-Nov-09 07:30N 54°01' E 008°05'612.8
2017-Nov-09 07:00N 54°00' E 008°16'815.5
2017-Nov-09 06:30N 53°59' E 008°28'815.2
2017-Nov-09 06:00N 53°55' E 008°40'714.1
2017-Nov-09 05:30N 53°50' E 008°48'612.7
2017-Nov-09 05:00N 53°51' E 008°59'611.3
2017-Nov-09 04:31N 53°53' E 009°08'1 1.2
2017-Nov-09 04:00N 53°54' E 009°09'0 0.7
2017-Nov-09 03:30N 53°54' E 009°09'1 1.3
2017-Nov-09 03:00N 53°54' E 009°10'3 5.5
2017-Nov-09 02:30N 53°56' E 009°13'4 8.2
2017-Nov-09 02:00N 53°60' E 009°17'4 7.9
2017-Nov-09 01:30N 54°04' E 009°19'4 8.3
2017-Nov-09 01:00N 54°08' E 009°20'2 4.3
2017-Nov-09 00:30N 54°09' E 009°22'3 6.5
2017-Nov-09 00:00N 54°11' E 009°27'4 7.7
2017-Nov-08 23:30N 54°12' E 009°33'2 4.2
2017-Nov-08 23:00N 54°14' E 009°36'3 6.6
2017-Nov-08 22:30N 54°17' E 009°38'4 7.2
2017-Nov-08 22:00N 54°19' E 009°43'1 2.2
2017-Nov-08 21:30N 54°20' E 009°44'4 7.1
2017-Nov-08 21:00N 54°22' E 009°49'5 5.5
2017-Nov-08 20:05N 54°21' E 009°57'1 3.4
2017-Nov-08 19:56N 54°21' E 009°58'6 3.0
2017-Nov-08 17:48N 54°22' E 010°09'1 3.0
2017-Nov-08 17:29N 54°22' E 010°11'710.7
2017-Nov-08 16:47N 54°29' E 010°16'711.7
2017-Nov-08 16:10N 54°32' E 010°27'213.5
2017-Nov-08 16:00N 54°33' E 010°30'713.1
2017-Nov-08 15:30N 54°35' E 010°42'713.5
2017-Nov-08 15:00N 54°35' E 010°53'714.3
2017-Nov-08 14:30N 54°36' E 011°05'713.3
2017-Nov-08 14:00N 54°34' E 011°16'714.0
2017-Nov-08 13:31N 54°31' E 011°27'714.2
2017-Nov-08 13:01N 54°28' E 011°38'714.0
2017-Nov-08 12:30N 54°26' E 011°50'713.9
2017-Nov-08 12:00N 54°26' E 012°02'612.1
2017-Nov-08 11:30N 54°29' E 012°11'713.4
2017-Nov-08 11:00N 54°35' E 012°14'4713.1
2017-Nov-08 07:24N 54°57' E 013°27'1312.9
2017-Nov-08 06:23N 55°01' E 013°49'512.6
2017-Nov-08 05:58N 55°03' E 013°57'612.5
2017-Nov-08 05:30N 55°05' E 014°06'612.8
2017-Nov-08 05:00N 55°10' E 014°13'713.5
2017-Nov-08 04:30N 55°16' E 014°21'713.4
2017-Nov-08 04:00N 55°21' E 014°28'613.0
2017-Nov-08 03:30N 55°26' E 014°35'  
Track history (hours):
 
Tides and Currents Weather Stations Pressure Air Temp Water Temp Dewpoint Dewpoint Depression Visibility Wind Speed Wind Dir Waves Ship Positions

Rhonestern

Last reported at 2017-Nov-18 03:09 UTC. Time now 2017-Nov-22 03:54 UTC.
Position N 52°40' W 005°51'.

Length 162 m; draft 6.8 m.

Type: Tanker. MMSI: 254899958.

Date/timePositionNaut miles runAvg speedWind from/ knotsBaromVisibWave heightAir tempDewpointWater temp
2017-Nov-18 03:09N 52°40' W 005°51'110.2
2017-Nov-18 03:00N 52°39' W 005°51'510.0
2017-Nov-18 02:30N 52°34' W 005°50'5 9.7
2017-Nov-18 02:00N 52°29' W 005°50'5 9.6
2017-Nov-18 01:30N 52°24' W 005°49'5 9.6
2017-Nov-18 01:00N 52°19' W 005°49'5 9.9
2017-Nov-18 00:30N 52°14' W 005°48'510.3
2017-Nov-18 00:00N 52°09' W 005°47'610.6
2017-Nov-17 23:29N 52°04' W 005°46'3611.7
2017-Nov-17 20:25N 51°28' W 005°57'5212.5
2017-Nov-17 16:15N 50°38' W 006°20'83 7.8
2017-Nov-17 05:34N 49°51' W 004°33'111.7
2017-Nov-17 05:29N 49°51' W 004°32'611.5
2017-Nov-17 05:00N 49°52' W 004°23'711.3
2017-Nov-17 04:25N 49°52' W 004°13'611.4
2017-Nov-17 03:56N 49°53' W 004°04'511.3
2017-Nov-17 03:30N 49°54' W 003°57'611.7
2017-Nov-17 03:00N 49°55' W 003°48'712.1
2017-Nov-17 02:27N 49°55' W 003°38'612.6
2017-Nov-17 02:00N 49°56' W 003°29'713.2
2017-Nov-17 01:30N 49°57' W 003°19'713.7
2017-Nov-17 01:00N 49°58' W 003°08'714.3
2017-Nov-17 00:30N 49°59' W 002°57'714.7
2017-Nov-17 00:00N 50°01' W 002°46'714.7
2017-Nov-16 23:30N 50°03' W 002°35'1814.0
2017-Nov-16 22:15N 50°07' W 002°09'312.9
2017-Nov-16 22:00N 50°08' W 002°04'612.2
2017-Nov-16 21:30N 50°10' W 001°55'611.3
2017-Nov-16 21:00N 50°11' W 001°47'510.5
2017-Nov-16 20:30N 50°13' W 001°39'5 9.9
2017-Nov-16 20:00N 50°14' W 001°31'5 9.2
2017-Nov-16 19:30N 50°15' W 001°24'5 9.0
2017-Nov-16 19:00N 50°17' W 001°17'5 8.9
2017-Nov-16 18:24N 50°18' W 001°09'4 8.8
2017-Nov-16 17:58N 50°19' W 001°03'7 9.7
2017-Nov-16 17:15N 50°21' W 000°53'2711.9
2017-Nov-16 15:00N 50°28' W 000°13'612.9
2017-Nov-16 14:31N 50°30' W 000°03'713.1
2017-Nov-16 14:00N 50°31' E 000°07'613.0
2017-Nov-16 13:31N 50°33' E 000°17'612.8
2017-Nov-16 13:01N 50°35' E 000°27'612.3
2017-Nov-16 12:31N 50°37' E 000°36'611.8
2017-Nov-16 12:00N 50°40' E 000°43'611.5
2017-Nov-16 11:31N 50°44' E 000°50'510.8
2017-Nov-16 11:01N 50°46' E 000°58'510.3
2017-Nov-16 10:31N 50°49' E 001°05'510.2
2017-Nov-16 10:01N 50°53' E 001°10'510.1
2017-Nov-16 09:31N 50°57' E 001°15'510.1
2017-Nov-16 08:58N 51°01' E 001°21'510.9
2017-Nov-16 08:31N 51°04' E 001°27'612.4
2017-Nov-16 08:01N 51°08' E 001°35'713.5
2017-Nov-16 07:30N 51°12' E 001°43'714.1
2017-Nov-16 07:01N 51°18' E 001°49'714.2
2017-Nov-16 06:31N 51°24' E 001°54'713.6
2017-Nov-16 06:00N 51°30' E 002°01'713.4
2017-Nov-16 05:30N 51°35' E 002°08'713.1
2017-Nov-16 05:00N 51°39' E 002°16'612.7
2017-Nov-16 04:30N 51°44' E 002°23'612.1
2017-Nov-16 04:00N 51°49' E 002°29'4310.3
2017-Nov-15 23:49N 52°04' E 003°35'310.5
2017-Nov-15 23:31N 52°03' E 003°40'510.9
2017-Nov-15 23:00N 52°03' E 003°49'5 9.5
2017-Nov-15 22:31N 52°01' E 003°56'612.1
2017-Nov-15 22:00N 51°59' E 004°05'4 7.8
2017-Nov-15 21:30N 51°57' E 004°11'1 2.2
2017-Nov-15 20:59N 51°56' E 004°12'0 0.0
2017-Nov-15 20:28N 51°56' E 004°12'0 0.0
2017-Nov-15 19:52N 51°56' E 004°12'0 0.0
2017-Nov-15 19:28N 51°56' E 004°12'0 0.0
2017-Nov-15 18:55N 51°56' E 004°12'0 0.0
2017-Nov-15 18:25N 51°56' E 004°12'0 0.0
2017-Nov-15 18:00N 51°56' E 004°12'0 0.0
2017-Nov-15 17:30N 51°56' E 004°12'0 0.0
2017-Nov-15 17:00N 51°56' E 004°12'0 0.0
2017-Nov-15 16:30N 51°56' E 004°12'0 0.0
2017-Nov-15 16:00N 51°56' E 004°12'0 0.0
2017-Nov-15 15:29N 51°56' E 004°12'0 0.0
2017-Nov-15 14:59N 51°56' E 004°12'0 0.0
2017-Nov-15 14:23N 51°56' E 004°12'0 0.0
2017-Nov-15 13:59N 51°56' E 004°12'0 0.0
2017-Nov-15 13:28N 51°56' E 004°12'0 0.0
2017-Nov-15 12:58N 51°56' E 004°12'0 0.0
2017-Nov-15 12:28N 51°56' E 004°12'0 0.0
2017-Nov-15 12:00N 51°56' E 004°12'0 0.0
2017-Nov-15 11:28N 51°56' E 004°12'0 0.0
2017-Nov-15 10:54N 51°56' E 004°12'0 0.0
2017-Nov-15 10:30N 51°56' E 004°12'0 0.0
2017-Nov-15 09:57N 51°56' E 004°12'0 0.0
2017-Nov-15 09:12N 51°56' E 004°12'0 0.0
2017-Nov-15 08:59N 51°56' E 004°12'0 0.0
2017-Nov-15 08:29N 51°56' E 004°12'0 0.0
2017-Nov-15 07:53N 51°56' E 004°12'0 0.0
2017-Nov-15 07:26N 51°56' E 004°12'0 0.0
2017-Nov-15 06:59N 51°56' E 004°12'0 0.0
2017-Nov-15 06:28N 51°56' E 004°12'0 0.0
2017-Nov-15 05:58N 51°56' E 004°12'0 0.0
2017-Nov-15 05:25N 51°56' E 004°12'0 0.0
2017-Nov-15 04:58N 51°56' E 004°12'0 0.0
2017-Nov-15 04:31N 51°56' E 004°12'0 0.0
2017-Nov-15 04:00N 51°56' E 004°12'0 0.0
2017-Nov-15 03:27N 51°56' E 004°12'0 0.0
2017-Nov-15 03:00N 51°56' E 004°12'0 0.0
2017-Nov-15 02:30N 51°56' E 004°12'0 0.0
2017-Nov-15 01:59N 51°56' E 004°12'0 0.0
2017-Nov-15 01:26N 51°56' E 004°12'0 0.0
2017-Nov-15 00:59N 51°56' E 004°12'0 0.0
2017-Nov-15 00:29N 51°56' E 004°12'0 0.0
2017-Nov-14 23:59N 51°56' E 004°12'0 0.0
2017-Nov-14 23:28N 51°56' E 004°12'0 0.0
2017-Nov-14 22:58N 51°56' E 004°12'0 0.0
2017-Nov-14 22:28N 51°56' E 004°12'0 0.0
2017-Nov-14 21:58N 51°56' E 004°12'0 0.0
2017-Nov-14 21:30N 51°56' E 004°12'0 0.0
2017-Nov-14 21:00N 51°56' E 004°12'0 0.0
2017-Nov-14 20:30N 51°56' E 004°12'0 0.0
2017-Nov-14 20:00N 51°56' E 004°12'0 0.0
2017-Nov-14 19:30N 51°56' E 004°12'0 0.0
2017-Nov-14 18:59N 51°56' E 004°12'0 0.0
2017-Nov-14 18:29N 51°56' E 004°12'0 0.2
2017-Nov-14 18:00N 51°56' E 004°12'1 1.3
2017-Nov-14 17:31N 51°56' E 004°11'3 6.2
2017-Nov-14 17:00N 51°58' E 004°07'510.7
2017-Nov-14 16:30N 51°60' E 003°59'612.7
2017-Nov-14 16:01N 51°60' E 003°49'4 7.6
2017-Nov-14 15:31N 51°59' E 003°43'510.2
2017-Nov-14 15:00N 51°57' E 003°34'712.8
2017-Nov-14 14:27N 51°55' E 003°24'612.5
2017-Nov-14 14:00N 51°49' E 003°24'0 0.5
2017-Nov-14 13:26N 51°49' E 003°24'0 0.0
2017-Nov-14 12:57N 51°49' E 003°24'0 0.0
2017-Nov-14 12:29N 51°49' E 003°24'0 0.0
2017-Nov-14 11:58N 51°49' E 003°24'0 0.0
2017-Nov-14 11:21N 51°49' E 003°24'0 0.0
2017-Nov-14 10:52N 51°49' E 003°24'0 0.0
2017-Nov-14 10:26N 51°49' E 003°24'0 0.0
2017-Nov-14 10:00N 51°49' E 003°24'0 0.1
2017-Nov-14 09:28N 51°49' E 003°24'0 0.1
2017-Nov-14 08:53N 51°49' E 003°24'0 0.0
2017-Nov-14 08:30N 51°49' E 003°24'0 0.0
2017-Nov-14 07:56N 51°49' E 003°24'0 0.1
2017-Nov-14 07:29N 51°49' E 003°24'0 0.0
2017-Nov-14 06:58N 51°49' E 003°24'0 0.0
2017-Nov-14 06:29N 51°49' E 003°24'0 0.1
2017-Nov-14 05:59N 51°49' E 003°24'0 0.0
2017-Nov-14 05:30N 51°49' E 003°24'0 0.0
2017-Nov-14 05:00N 51°49' E 003°24'0 0.0
2017-Nov-14 04:29N 51°49' E 003°24'0 0.0
2017-Nov-14 04:00N 51°49' E 003°24'0 0.0
2017-Nov-14 03:29N 51°49' E 003°24'0 0.0
2017-Nov-14 02:59N 51°49' E 003°24'0 0.0
2017-Nov-14 02:30N 51°49' E 003°24'0 0.0
2017-Nov-14 01:59N 51°49' E 003°24'0 0.0
2017-Nov-14 01:30N 51°49' E 003°24'0 0.0
2017-Nov-14 00:58N 51°49' E 003°24'0 0.1
2017-Nov-14 00:25N 51°49' E 003°24'0 0.0
2017-Nov-13 23:56N 51°49' E 003°24'0 0.0
2017-Nov-13 23:07N 51°49' E 003°24'0 0.0
2017-Nov-13 22:52N 51°49' E 003°24'0 0.0
2017-Nov-13 22:30N 51°49' E 003°24'2 0.1
2017-Nov-13 02:00N 51°51' E 003°25'0 0.6
2017-Nov-13 01:28N 51°50' E 003°25'0 0.8
2017-Nov-13 01:00N 51°51' E 003°25'0 0.4
2017-Nov-13 00:30N 51°51' E 003°25'1 2.5
2017-Nov-12 23:59N 51°50' E 003°26'1 2.1
2017-Nov-12 23:29N 51°49' E 003°24'2 4.4
2017-Nov-12 23:00N 51°51' E 003°23'1 1.3
2017-Nov-12 22:30N 51°51' E 003°22'0 0.2
2017-Nov-12 21:53N 51°51' E 003°22'0 0.5
2017-Nov-12 21:28N 51°51' E 003°22'1 1.3
2017-Nov-12 21:00N 51°50' E 003°22'0 0.5
2017-Nov-12 20:29N 51°50' E 003°23'1 2.1
2017-Nov-12 19:59N 51°49' E 003°24'1 1.0
2017-Nov-12 19:29N 51°48' E 003°23'0 0.3
2017-Nov-12 18:57N 51°49' E 003°23'0 0.1
2017-Nov-12 18:27N 51°49' E 003°23'0 0.0
2017-Nov-12 17:35N 51°49' E 003°23'0 0.2
2017-Nov-12 17:30N 51°49' E 003°23'0 0.1
2017-Nov-12 16:12N 51°49' E 003°23'0 0.1
2017-Nov-12 15:54N 51°49' E 003°23'0 0.0
2017-Nov-12 15:30N 51°49' E 003°23'0 0.1
2017-Nov-12 13:32N 51°49' E 003°23'0 0.1
2017-Nov-12 13:14N 51°49' E 003°23'0 0.0
2017-Nov-12 12:50N 51°49' E 003°23'0 0.0
2017-Nov-12 10:40N 51°49' E 003°23'0 0.1
2017-Nov-12 10:19N 51°49' E 003°23'0 0.0
2017-Nov-12 09:51N 51°49' E 003°23'0 0.0
2017-Nov-12 09:21N 51°49' E 003°23'0 0.0
2017-Nov-12 08:51N 51°49' E 003°23'0 0.0
2017-Nov-12 08:21N 51°49' E 003°23'0 0.0
2017-Nov-12 07:51N 51°49' E 003°23'0 0.0
2017-Nov-12 07:20N 51°49' E 003°23'0 0.1
2017-Nov-12 06:53N 51°49' E 003°23'0 0.0
2017-Nov-12 05:59N 51°49' E 003°23'0 0.0
2017-Nov-12 05:23N 51°49' E 003°23'0 0.0
2017-Nov-12 04:55N 51°49' E 003°23'0 0.0
2017-Nov-12 04:28N 51°49' E 003°23'0 0.0
2017-Nov-12 03:58N 51°49' E 003°23'0 0.0
2017-Nov-12 03:25N 51°49' E 003°23'0 0.0
2017-Nov-12 03:00N 51°49' E 003°23'0 0.0
2017-Nov-12 02:30N 51°49' E 003°23'0 0.0
2017-Nov-12 02:00N 51°49' E 003°23'0 0.0
2017-Nov-12 01:21N 51°49' E 003°23'0 0.0
2017-Nov-12 01:00N 51°49' E 003°23'0 0.0
2017-Nov-12 00:08N 51°49' E 003°23'0 0.0
2017-Nov-11 23:56N 51°49' E 003°23'0 0.0
2017-Nov-11 23:29N 51°49' E 003°23'0 0.1
2017-Nov-11 21:52N 51°49' E 003°23'3 7.9
2017-Nov-11 21:28N 51°47' E 003°19'511.1
2017-Nov-11 20:59N 51°42' E 003°18'612.8
2017-Nov-11 20:30N 51°36' E 003°23'613.0
2017-Nov-11 20:00N 51°30' E 003°27'612.2
2017-Nov-11 19:30N 51°26' E 003°34'4 7.1
2017-Nov-11 19:00N 51°26' E 003°40'510.2
2017-Nov-11 18:30N 51°22' E 003°45'2 3.5
2017-Nov-11 17:58N 51°20' E 003°46'0 0.0
2017-Nov-11 17:28N 51°20' E 003°46'0 0.0
2017-Nov-11 16:57N 51°20' E 003°46'0 0.0
2017-Nov-11 16:21N 51°20' E 003°46'0 0.0
2017-Nov-11 15:57N 51°20' E 003°46'0 0.0
2017-Nov-11 15:30N 51°20' E 003°46'0 0.0
2017-Nov-11 15:00N 51°20' E 003°46'0 0.0
2017-Nov-11 14:29N 51°20' E 003°46'0 0.0
2017-Nov-11 13:56N 51°20' E 003°46'0 0.0
2017-Nov-11 13:29N 51°20' E 003°46'0 0.0
2017-Nov-11 12:56N 51°20' E 003°46'0 0.0
2017-Nov-11 12:26N 51°20' E 003°46'0 0.0
2017-Nov-11 11:58N 51°20' E 003°46'0 0.0
2017-Nov-11 11:25N 51°20' E 003°46'0 0.0
2017-Nov-11 10:55N 51°20' E 003°46'0 0.0
2017-Nov-11 10:28N 51°20' E 003°46'0 0.0
2017-Nov-11 10:00N 51°20' E 003°46'0 0.0
2017-Nov-11 09:30N 51°20' E 003°46'0 0.0
2017-Nov-11 08:54N 51°20' E 003°46'0 0.0
2017-Nov-11 08:30N 51°20' E 003°46'0 0.0
2017-Nov-11 08:00N 51°20' E 003°46'0 0.0
2017-Nov-11 07:29N 51°20' E 003°46'0 0.0
2017-Nov-11 06:59N 51°20' E 003°46'0 0.0
2017-Nov-11 06:26N 51°20' E 003°46'0 0.0
2017-Nov-11 05:59N 51°20' E 003°46'0 0.0
2017-Nov-11 05:29N 51°20' E 003°46'0 0.0
2017-Nov-11 04:58N 51°20' E 003°46'0 0.0
2017-Nov-11 04:28N 51°20' E 003°46'0 0.0
2017-Nov-11 03:58N 51°20' E 003°46'0 0.0
2017-Nov-11 03:28N 51°20' E 003°46'0 0.0
2017-Nov-11 03:00N 51°20' E 003°46'0 0.0
2017-Nov-11 02:24N 51°20' E 003°46'0 0.0
2017-Nov-11 01:57N 51°20' E 003°46'0 0.0
2017-Nov-11 01:30N 51°20' E 003°46'0 0.0
2017-Nov-11 00:54N 51°20' E 003°46'0 0.0
2017-Nov-11 00:23N 51°20' E 003°46'0 0.0
2017-Nov-10 23:56N 51°20' E 003°46'0 0.0
2017-Nov-10 23:29N 51°20' E 003°46'0 0.0
2017-Nov-10 22:56N 51°20' E 003°46'0 0.0
2017-Nov-10 22:25N 51°20' E 003°46'0 0.0
2017-Nov-10 21:55N 51°20' E 003°46'0 0.0
2017-Nov-10 21:25N 51°20' E 003°46'0 0.0
2017-Nov-10 20:55N 51°20' E 003°46'0 0.0
2017-Nov-10 20:25N 51°20' E 003°46'0 0.0
2017-Nov-10 20:00N 51°20' E 003°46'0 0.0
2017-Nov-10 19:30N 51°20' E 003°46'0 0.0
2017-Nov-10 18:18N 51°20' E 003°46'0 1.0
2017-Nov-10 18:01N 51°21' E 003°46'4 7.0
2017-Nov-10 17:30N 51°24' E 003°43'510.5
2017-Nov-10 17:01N 51°26' E 003°35'713.0
2017-Nov-10 16:30N 51°30' E 003°27'612.4
2017-Nov-10 16:00N 51°36' E 003°23'611.4
2017-Nov-10 15:30N 51°40' E 003°17'4 7.5
2017-Nov-10 15:00N 51°44' E 003°16'3 5.8
2017-Nov-10 14:29N 51°46' E 003°20'0 0.1
2017-Nov-10 13:59N 51°46' E 003°20'0 0.0
2017-Nov-10 13:28N 51°46' E 003°20'0 0.0
2017-Nov-10 12:58N 51°46' E 003°20'0 0.1
2017-Nov-10 12:28N 51°46' E 003°20'0 0.1
2017-Nov-10 11:58N 51°46' E 003°20'0 0.0
2017-Nov-10 11:30N 51°46' E 003°20'0 0.1
2017-Nov-10 11:00N 51°46' E 003°20'0 0.0
2017-Nov-10 10:24N 51°46' E 003°20'0 0.0
2017-Nov-10 10:00N 51°46' E 003°20'1 1.6
2017-Nov-10 09:28N 51°46' E 003°18'613.1
2017-Nov-10 08:59N 51°45' E 003°08'216 9.1
2017-Nov-09 09:23N 54°12' E 007°30'511.4
2017-Nov-09 09:00N 54°11' E 007°37'612.3
2017-Nov-09 08:30N 54°08' E 007°46'612.5
2017-Nov-09 08:00N 54°04' E 007°55'612.8
2017-Nov-09 07:30N 54°01' E 008°05'612.8
2017-Nov-09 07:00N 54°00' E 008°16'815.5
2017-Nov-09 06:30N 53°59' E 008°28'815.2
2017-Nov-09 06:00N 53°55' E 008°40'714.1
2017-Nov-09 05:30N 53°50' E 008°48'612.7
2017-Nov-09 05:00N 53°51' E 008°59'611.3
2017-Nov-09 04:31N 53°53' E 009°08'1 1.2
2017-Nov-09 04:00N 53°54' E 009°09'0 0.7
2017-Nov-09 03:30N 53°54' E 009°09'1 1.3
2017-Nov-09 03:00N 53°54' E 009°10'3 5.5
2017-Nov-09 02:30N 53°56' E 009°13'4 8.2
2017-Nov-09 02:00N 53°60' E 009°17'4 7.9
2017-Nov-09 01:30N 54°04' E 009°19'4 8.3
2017-Nov-09 01:00N 54°08' E 009°20'2 4.3
2017-Nov-09 00:30N 54°09' E 009°22'3 6.5
2017-Nov-09 00:00N 54°11' E 009°27'4 7.7
2017-Nov-08 23:30N 54°12' E 009°33'2 4.2
2017-Nov-08 23:00N 54°14' E 009°36'3 6.6
2017-Nov-08 22:30N 54°17' E 009°38'4 7.2
2017-Nov-08 22:00N 54°19' E 009°43'1 2.2
2017-Nov-08 21:30N 54°20' E 009°44'4 7.1
2017-Nov-08 21:00N 54°22' E 009°49'5 5.5
2017-Nov-08 20:05N 54°21' E 009°57'1 3.4
2017-Nov-08 19:56N 54°21' E 009°58'6 3.0
2017-Nov-08 17:48N 54°22' E 010°09'1 3.0
2017-Nov-08 17:29N 54°22' E 010°11'710.7
2017-Nov-08 16:47N 54°29' E 010°16'711.7
2017-Nov-08 16:10N 54°32' E 010°27'213.5
2017-Nov-08 16:00N 54°33' E 010°30'713.1
2017-Nov-08 15:30N 54°35' E 010°42'713.5
2017-Nov-08 15:00N 54°35' E 010°53'714.3
2017-Nov-08 14:30N 54°36' E 011°05'713.3
2017-Nov-08 14:00N 54°34' E 011°16'714.0
2017-Nov-08 13:31N 54°31' E 011°27'714.2
2017-Nov-08 13:01N 54°28' E 011°38'714.0
2017-Nov-08 12:30N 54°26' E 011°50'713.9
2017-Nov-08 12:00N 54°26' E 012°02'612.1
2017-Nov-08 11:30N 54°29' E 012°11'713.4
2017-Nov-08 11:00N 54°35' E 012°14'4713.1
2017-Nov-08 07:24N 54°57' E 013°27'1312.9
2017-Nov-08 06:23N 55°01' E 013°49'512.6
2017-Nov-08 05:58N 55°03' E 013°57'612.5
2017-Nov-08 05:30N 55°05' E 014°06'612.8
2017-Nov-08 05:00N 55°10' E 014°13'713.5
2017-Nov-08 04:30N 55°16' E 014°21'713.4
2017-Nov-08 04:00N 55°21' E 014°28'613.0
2017-Nov-08 03:30N 55°26' E 014°35'  

Dump ship's entire track history